createdAt,value
2023-02-05T00:00:17.573Z,6.03
2023-02-05T00:02:43.989Z,5.90
2023-02-05T00:05:10.612Z,4.33
2023-02-05T00:07:37.078Z,4.80
2023-02-05T00:10:03.864Z,5.00
2023-02-05T00:12:30.204Z,5.63
2023-02-05T00:14:56.606Z,6.90
2023-02-05T00:17:23.024Z,10.73
2023-02-05T00:19:49.459Z,5.53
2023-02-05T00:22:15.949Z,5.60
2023-02-05T00:24:42.357Z,4.83
2023-02-05T00:27:10.194Z,6.60
2023-02-05T00:29:36.744Z,8.53
2023-02-05T00:32:03.409Z,10.10
2023-02-05T00:34:29.831Z,6.63
2023-02-05T00:36:56.294Z,6.40
2023-02-05T00:39:22.765Z,5.50
2023-02-05T00:41:49.329Z,4.90
2023-02-05T00:44:15.772Z,5.03
2023-02-05T00:46:42.208Z,3.97
2023-02-05T00:49:08.571Z,4.63
2023-02-05T00:51:34.971Z,8.87
2023-02-05T00:54:01.403Z,4.80
2023-02-05T00:56:27.758Z,3.33
2023-02-05T00:58:54.336Z,4.10
2023-02-05T01:01:20.790Z,3.17
2023-02-05T01:03:47.217Z,5.73
2023-02-05T01:06:13.858Z,3.67
2023-02-05T01:08:40.266Z,3.73
2023-02-05T01:11:08.040Z,4.63
2023-02-05T01:13:34.494Z,4.57
2023-02-05T01:16:00.866Z,3.47
2023-02-05T01:18:27.326Z,4.57
2023-02-05T01:20:53.974Z,5.53
2023-02-05T01:23:20.480Z,4.50
2023-02-05T01:25:46.871Z,2.40
2023-02-05T01:28:13.335Z,4.90
2023-02-05T01:30:39.901Z,4.70
2023-02-05T01:33:06.468Z,5.87
2023-02-05T01:35:33.139Z,2.37
2023-02-05T01:37:59.688Z,3.33
2023-02-05T01:40:26.092Z,3.37
2023-02-05T01:42:52.459Z,4.10
2023-02-05T01:45:21.962Z,3.50
2023-02-05T01:47:49.020Z,3.10
2023-02-05T01:53:08.148Z,5.17
2023-02-05T01:55:36.362Z,5.17
2023-02-05T01:58:02.784Z,4.83
2023-02-05T02:00:29.154Z,3.97
2023-02-05T02:05:27.602Z,3.33
2023-02-05T02:07:53.993Z,2.53
2023-02-05T02:10:20.622Z,3.00
2023-02-05T02:12:48.179Z,3.20
2023-02-05T02:15:17.816Z,4.43
2023-02-05T02:17:47.097Z,5.53
2023-02-05T02:20:18.871Z,4.90
2023-02-05T02:22:54.759Z,4.93
2023-02-05T02:25:39.884Z,3.73
2023-02-05T02:28:06.285Z,3.17
2023-02-05T02:30:35.648Z,3.40
2023-02-05T02:33:05.776Z,3.17
2023-02-05T02:35:52.938Z,3.00
2023-02-05T02:38:32.184Z,4.20
2023-02-05T02:41:05.535Z,5.37
2023-02-05T02:43:37.529Z,4.50
2023-02-05T02:46:09.999Z,3.90
2023-02-05T02:48:38.838Z,3.97
2023-02-05T02:51:07.222Z,2.60
2023-02-05T02:53:35.361Z,2.90
2023-02-05T02:56:02.652Z,4.83
2023-02-05T02:58:55.128Z,7.73
2023-02-05T03:01:24.118Z,2.87
2023-02-05T03:03:52.973Z,2.97
2023-02-05T03:06:20.341Z,3.70
2023-02-05T03:08:52.872Z,5.33
2023-02-05T03:11:19.310Z,3.23
2023-02-05T03:13:46.156Z,3.43
2023-02-05T03:16:14.507Z,6.50
2023-02-05T03:18:41.013Z,6.23
2023-02-05T03:21:14.209Z,4.03
2023-02-05T03:23:41.087Z,3.83
2023-02-05T03:26:21.964Z,5.53
2023-02-05T03:28:48.294Z,5.17
2023-02-05T03:31:18.830Z,3.07
2023-02-05T03:33:59.270Z,3.97
2023-02-05T03:36:29.057Z,4.60
2023-02-05T03:38:58.772Z,6.50
2023-02-05T03:41:51.008Z,4.57
2023-02-05T03:44:23.205Z,3.33
2023-02-05T03:47:02.350Z,3.27
2023-02-05T03:49:52.505Z,2.50
2023-02-05T03:52:22.434Z,3.83
2023-02-05T03:55:06.147Z,6.00
2023-02-05T03:57:39.168Z,4.97
2023-02-05T04:00:06.283Z,4.87
2023-02-05T04:02:33.538Z,6.53
2023-02-05T04:05:00.398Z,7.33
2023-02-05T04:07:26.832Z,5.93
2023-02-05T04:09:53.230Z,7.27
2023-02-05T04:12:19.605Z,5.93
2023-02-05T04:14:46.007Z,3.83
2023-02-05T04:17:12.497Z,3.17
2023-02-05T04:19:38.971Z,5.60
2023-02-05T04:22:05.381Z,3.90
2023-02-05T04:24:31.721Z,4.53
2023-02-05T04:26:58.125Z,2.37
2023-02-05T04:29:24.646Z,3.70
2023-02-05T04:31:51.228Z,5.03
2023-02-05T04:34:17.719Z,4.20
2023-02-05T04:36:45.273Z,3.60
2023-02-05T04:39:11.620Z,5.73
2023-02-05T04:41:38.013Z,2.70
2023-02-05T04:44:04.411Z,5.97
2023-02-05T04:46:30.786Z,2.97
2023-02-05T04:48:57.200Z,3.30
2023-02-05T04:51:23.648Z,5.87
2023-02-05T04:53:50.078Z,4.27
2023-02-05T04:56:17.356Z,4.23
2023-02-05T04:58:44.055Z,6.27
2023-02-05T05:01:17.043Z,8.50
2023-02-05T05:03:43.863Z,2.50
2023-02-05T05:06:10.532Z,6.03
2023-02-05T05:08:37.067Z,3.70
2023-02-05T05:11:11.701Z,5.77
2023-02-05T05:13:38.104Z,3.53
2023-02-05T05:16:05.678Z,5.60
2023-02-05T05:18:32.167Z,3.93
2023-02-05T05:20:58.805Z,4.30
2023-02-05T05:23:25.148Z,8.37
2023-02-05T05:25:51.568Z,4.20
2023-02-05T05:28:17.959Z,7.33
2023-02-05T05:30:45.440Z,3.60
2023-02-05T05:33:12.507Z,4.77
2023-02-05T05:35:38.908Z,2.57
2023-02-05T05:38:05.529Z,6.53
2023-02-05T05:40:51.074Z,2.30
2023-02-05T05:43:37.108Z,6.03
2023-02-05T05:46:03.690Z,5.07
2023-02-05T05:48:30.494Z,5.07
2023-02-05T05:50:56.837Z,4.13
2023-02-05T05:53:23.293Z,8.53
2023-02-05T05:55:49.868Z,22.47
2023-02-05T05:58:16.526Z,12.13
2023-02-05T06:00:43.086Z,5.20
2023-02-05T06:03:12.699Z,4.10
2023-02-05T06:05:39.180Z,3.80
2023-02-05T06:08:05.865Z,6.30
2023-02-05T06:10:33.117Z,3.87
2023-02-05T06:12:59.815Z,3.63
2023-02-05T06:15:26.869Z,4.27
2023-02-05T06:17:53.352Z,5.50
2023-02-05T06:20:19.819Z,8.00
2023-02-05T06:22:46.286Z,5.70
2023-02-05T06:25:12.940Z,3.50
2023-02-05T06:27:39.339Z,4.60
2023-02-05T06:30:05.903Z,4.57
2023-02-05T06:32:32.366Z,7.47
2023-02-05T06:34:58.814Z,2.97
2023-02-05T06:37:46.310Z,3.57
2023-02-05T06:40:15.798Z,4.03
2023-02-05T06:42:42.568Z,4.60
2023-02-05T06:45:10.235Z,3.97
2023-02-05T06:47:36.780Z,5.47
2023-02-05T06:50:03.659Z,5.33
2023-02-05T06:52:30.016Z,4.90
2023-02-05T06:54:56.394Z,5.17
2023-02-05T06:57:22.812Z,4.37
2023-02-05T06:59:49.257Z,5.03
2023-02-05T07:02:15.674Z,5.23
2023-02-05T07:04:42.170Z,7.07
2023-02-05T07:07:08.750Z,3.60
2023-02-05T07:09:35.242Z,5.47
2023-02-05T07:12:01.621Z,4.37
2023-02-05T07:14:28.218Z,5.17
2023-02-05T07:16:54.575Z,5.87
2023-02-05T07:19:20.945Z,5.73
2023-02-05T07:21:47.363Z,4.00
2023-02-05T07:24:14.495Z,5.13
2023-02-05T07:26:43.065Z,4.67
2023-02-05T07:29:09.558Z,4.40
2023-02-05T07:31:36.588Z,4.53
2023-02-05T07:34:03.263Z,4.37
2023-02-05T07:36:29.664Z,5.27
2023-02-05T07:38:56.058Z,3.90
2023-02-05T07:41:22.459Z,6.70
2023-02-05T07:43:52.714Z,6.30
2023-02-05T07:46:19.775Z,4.13
2023-02-05T07:48:46.110Z,5.23
2023-02-05T07:51:17.098Z,4.37
2023-02-05T07:53:43.545Z,7.13
2023-02-05T07:56:09.892Z,4.43
2023-02-05T07:58:36.345Z,9.50
2023-02-05T08:01:03.573Z,4.70
2023-02-05T08:03:30.586Z,7.10
2023-02-05T08:05:57.168Z,6.00
2023-02-05T08:08:24.340Z,3.60
2023-02-05T08:10:58.316Z,4.97
2023-02-05T08:13:24.782Z,3.77
2023-02-05T08:15:51.308Z,8.17
2023-02-05T08:18:17.740Z,5.93
2023-02-05T08:20:44.481Z,5.60
2023-02-05T08:23:11.005Z,5.07
2023-02-05T08:25:38.235Z,6.70
2023-02-05T08:28:04.859Z,5.33
2023-02-05T08:30:31.427Z,5.07
2023-02-05T08:32:57.921Z,6.03
2023-02-05T08:35:24.284Z,4.70
2023-02-05T08:37:50.760Z,6.40
2023-02-05T08:40:17.158Z,5.17
2023-02-05T08:42:43.609Z,6.53
2023-02-05T08:45:10.074Z,6.93
2023-02-05T08:47:36.566Z,7.53
2023-02-05T08:50:04.057Z,5.83
2023-02-05T08:52:30.489Z,14.10
2023-02-05T08:54:56.856Z,15.27
2023-02-05T08:57:26.948Z,14.53
2023-02-05T08:59:53.352Z,8.23
2023-02-05T09:02:19.719Z,7.80
2023-02-05T09:04:48.873Z,9.53
2023-02-05T09:07:15.922Z,7.13
2023-02-05T09:09:42.684Z,5.87
2023-02-05T09:12:10.801Z,5.33
2023-02-05T09:14:38.273Z,8.33
2023-02-05T09:17:05.943Z,8.87
2023-02-05T09:19:36.749Z,7.17
2023-02-05T09:22:03.153Z,15.20
2023-02-05T09:24:29.897Z,16.33
2023-02-05T09:26:56.499Z,8.67
2023-02-05T09:29:23.303Z,5.80
2023-02-05T09:31:50.015Z,9.27
2023-02-05T09:34:16.534Z,5.57
2023-02-05T09:36:43.066Z,6.80
2023-02-05T09:39:18.577Z,6.63
2023-02-05T09:42:00.576Z,6.73
2023-02-05T09:44:30.077Z,5.20
2023-02-05T09:47:02.224Z,7.07
2023-02-05T09:49:31.486Z,5.77
2023-02-05T09:52:10.380Z,5.50
2023-02-05T09:54:40.575Z,5.17
2023-02-05T09:57:08.147Z,6.93
2023-02-05T09:59:34.817Z,5.67
2023-02-05T10:02:17.827Z,5.60
2023-02-05T10:04:44.257Z,9.17
2023-02-05T10:07:10.725Z,6.57
2023-02-05T10:09:45.824Z,7.70
2023-02-05T10:12:21.364Z,7.83
2023-02-05T10:14:51.848Z,5.73
2023-02-05T10:17:29.714Z,6.43
2023-02-05T10:20:07.641Z,5.80
2023-02-05T10:22:40.090Z,7.77
2023-02-05T10:25:20.254Z,7.97
2023-02-05T10:27:54.752Z,5.40
2023-02-05T10:30:30.645Z,12.67
2023-02-05T10:32:58.763Z,8.07
2023-02-05T10:35:34.395Z,6.53
2023-02-05T10:38:01.116Z,7.30
2023-02-05T10:40:34.868Z,19.70
2023-02-05T10:43:05.232Z,12.27
2023-02-05T10:45:31.765Z,6.67
2023-02-05T10:48:03.654Z,5.87
2023-02-05T10:50:36.617Z,8.10
2023-02-05T10:53:04.693Z,6.77
2023-02-05T10:55:31.104Z,7.87
2023-02-05T10:57:57.585Z,6.20
2023-02-05T11:00:24.437Z,8.10
2023-02-05T11:02:52.447Z,8.77
2023-02-05T11:05:47.404Z,8.17
2023-02-05T11:08:32.565Z,6.87
2023-02-05T11:10:59.111Z,5.87
2023-02-05T11:13:26.014Z,13.77
2023-02-05T11:16:12.021Z,4.83
2023-02-05T11:18:44.186Z,11.87
2023-02-05T11:21:10.933Z,9.07
2023-02-05T11:23:41.867Z,5.53
2023-02-05T11:26:18.532Z,5.60
2023-02-05T11:28:45.270Z,6.33
2023-02-05T11:31:23.656Z,4.60
2023-02-05T11:33:50.143Z,7.47
2023-02-05T11:36:18.259Z,4.90
2023-02-05T11:38:46.509Z,6.13
2023-02-05T11:41:15.877Z,5.87
2023-02-05T11:43:45.265Z,8.43
2023-02-05T11:46:15.729Z,5.30
2023-02-05T11:48:43.978Z,5.83
2023-02-05T11:51:27.660Z,6.87
2023-02-05T11:53:55.521Z,9.37
2023-02-05T11:56:25.145Z,7.27
2023-02-05T11:59:02.065Z,4.60
2023-02-05T12:01:32.358Z,9.60
2023-02-05T12:03:59.838Z,6.53
2023-02-05T12:06:37.575Z,7.13
2023-02-05T12:09:04.232Z,7.17
2023-02-05T12:11:56.419Z,7.33
2023-02-05T12:14:49.581Z,6.63
2023-02-05T12:17:30.443Z,6.17
2023-02-05T12:20:00.265Z,5.67
2023-02-05T12:22:26.636Z,5.53
2023-02-05T12:24:56.112Z,4.63
2023-02-05T12:27:41.428Z,4.93
2023-02-05T12:30:20.251Z,5.00
2023-02-05T12:32:51.245Z,6.07
2023-02-05T12:35:20.679Z,4.40
2023-02-05T12:37:58.219Z,6.97
2023-02-05T12:40:43.408Z,6.50
2023-02-05T12:43:28.049Z,5.30
2023-02-05T12:46:00.624Z,7.73
2023-02-05T12:48:34.715Z,5.57
2023-02-05T12:51:16.114Z,7.57
2023-02-05T12:53:42.562Z,6.93
2023-02-05T12:56:12.177Z,7.33
2023-02-05T12:58:42.391Z,7.43
2023-02-05T13:01:12.222Z,7.33
2023-02-05T13:03:45.110Z,8.70
2023-02-05T13:06:17.071Z,7.50
2023-02-05T13:08:49.023Z,5.70
2023-02-05T13:11:24.582Z,7.47
2023-02-05T13:14:00.424Z,12.93
2023-02-05T13:16:34.086Z,21.60
2023-02-05T13:19:16.670Z,8.80
2023-02-05T13:22:02.192Z,7.60
2023-02-05T13:24:53.560Z,9.00
2023-02-05T13:27:46.686Z,4.30
2023-02-05T13:30:17.003Z,6.70
2023-02-05T13:32:46.933Z,6.73
2023-02-05T13:35:14.503Z,6.40
2023-02-05T13:37:47.495Z,9.00
2023-02-05T13:40:23.283Z,8.87
2023-02-05T13:42:49.928Z,6.70
2023-02-05T13:45:39.154Z,8.77
2023-02-05T13:48:08.613Z,6.23
2023-02-05T13:50:34.980Z,6.60
2023-02-05T13:53:18.278Z,4.97
2023-02-05T13:55:58.199Z,5.90
2023-02-05T13:58:29.165Z,5.33
2023-02-05T14:01:01.313Z,5.47
2023-02-05T14:03:50.853Z,5.97
2023-02-05T14:06:27.091Z,7.93
2023-02-05T14:08:58.855Z,6.10
2023-02-05T14:11:27.070Z,8.37
2023-02-05T14:14:12.227Z,6.33
2023-02-05T14:16:38.736Z,9.50
2023-02-05T14:19:08.105Z,12.33
2023-02-05T14:21:34.508Z,6.47
2023-02-05T14:24:03.977Z,5.47
2023-02-05T14:26:53.780Z,7.73
2023-02-05T14:29:39.602Z,9.97
2023-02-05T14:32:07.566Z,5.43
2023-02-05T14:34:35.251Z,5.83
2023-02-05T14:37:01.944Z,8.37
2023-02-05T14:39:35.454Z,4.53
2023-02-05T14:42:05.407Z,10.87
2023-02-05T14:44:33.962Z,6.33
2023-02-05T14:47:06.532Z,7.00
2023-02-05T14:49:32.991Z,7.10
2023-02-05T14:52:00.646Z,9.13
2023-02-05T14:54:31.479Z,6.90
2023-02-05T14:57:20.362Z,8.90
2023-02-05T14:59:56.207Z,6.50
2023-02-05T15:02:41.602Z,6.70
2023-02-05T15:05:14.252Z,8.20
2023-02-05T15:07:40.723Z,8.90
2023-02-05T15:10:07.720Z,9.40
2023-02-05T15:12:43.400Z,8.50
2023-02-05T15:15:29.273Z,9.47
2023-02-05T15:18:02.198Z,11.20
2023-02-05T15:20:32.458Z,10.80
2023-02-05T15:23:10.327Z,10.67
2023-02-05T15:25:38.660Z,29.47
2023-02-05T15:28:10.008Z,14.30
2023-02-05T15:30:59.674Z,9.93
2023-02-05T15:33:33.186Z,9.60
2023-02-05T15:36:00.102Z,7.67
2023-02-05T15:38:35.244Z,7.87
2023-02-05T15:41:04.724Z,6.90
2023-02-05T15:43:31.096Z,5.60
2023-02-05T15:46:06.063Z,7.37
2023-02-05T15:48:33.928Z,12.90
2023-02-05T15:51:03.521Z,11.60
2023-02-05T15:53:29.912Z,8.47
2023-02-05T15:55:56.967Z,9.33
2023-02-05T15:58:25.285Z,10.40
2023-02-05T16:00:53.800Z,7.57
2023-02-05T16:03:29.966Z,9.13
2023-02-05T16:05:56.395Z,12.27
2023-02-05T16:08:23.593Z,9.20
2023-02-05T16:10:54.488Z,11.30
2023-02-05T16:13:21.092Z,8.93
2023-02-05T16:15:51.675Z,11.87
2023-02-05T16:18:27.602Z,8.30
2023-02-05T16:20:55.878Z,12.50
2023-02-05T16:23:27.945Z,12.73
2023-02-05T16:26:05.676Z,10.53
2023-02-05T16:28:41.188Z,11.53
2023-02-05T16:31:08.557Z,9.37
2023-02-05T16:33:41.053Z,13.70
2023-02-05T16:36:14.445Z,9.53
2023-02-05T16:38:41.112Z,9.20
2023-02-05T16:41:22.176Z,9.70
2023-02-05T16:43:49.028Z,9.80
2023-02-05T16:46:20.833Z,10.07
2023-02-05T16:48:47.161Z,14.40
2023-02-05T16:51:27.040Z,10.73
2023-02-05T16:53:53.678Z,18.37
2023-02-05T16:56:21.911Z,18.50
2023-02-05T16:58:50.138Z,29.90
2023-02-05T17:01:22.405Z,18.63
2023-02-05T17:03:49.943Z,13.17
2023-02-05T17:06:18.643Z,12.07
2023-02-05T17:08:52.214Z,9.20
2023-02-05T17:11:30.672Z,10.33
2023-02-05T17:14:16.040Z,14.60
2023-02-05T17:16:42.532Z,11.20
2023-02-05T17:19:23.601Z,11.80
2023-02-05T17:22:10.073Z,13.83
2023-02-05T17:24:36.596Z,21.67
2023-02-05T17:27:03.198Z,21.87
2023-02-05T17:29:30.341Z,15.60
2023-02-05T17:31:58.253Z,19.40
2023-02-05T17:34:24.685Z,23.70
2023-02-05T17:36:51.752Z,15.87
2023-02-05T17:39:18.173Z,20.80
2023-02-05T17:42:03.202Z,24.17
2023-02-05T17:44:30.503Z,20.53
2023-02-05T17:47:00.441Z,25.43
2023-02-05T17:49:27.032Z,27.97
2023-02-05T17:51:53.655Z,32.50
2023-02-05T17:54:25.622Z,27.60
2023-02-05T17:56:53.437Z,30.93
2023-02-05T17:59:21.384Z,30.47
2023-02-05T18:01:48.532Z,24.63
2023-02-05T18:04:15.539Z,28.20
2023-02-05T18:06:42.740Z,29.83
2023-02-05T18:09:09.682Z,28.43
2023-02-05T18:11:36.184Z,26.23
2023-02-05T18:14:02.636Z,28.67
2023-02-05T18:16:29.259Z,26.93
2023-02-05T18:18:55.806Z,26.93
2023-02-05T18:21:22.254Z,31.30
2023-02-05T18:23:52.880Z,30.50
2023-02-05T18:26:19.733Z,32.83
2023-02-05T18:28:46.879Z,28.83
2023-02-05T18:31:14.019Z,32.33
2023-02-05T18:33:40.498Z,33.60
2023-02-05T18:36:08.230Z,31.87
2023-02-05T18:38:35.281Z,38.77
2023-02-05T18:41:08.797Z,31.90
2023-02-05T18:43:36.434Z,32.77
2023-02-05T18:46:06.998Z,28.03
2023-02-05T18:48:34.474Z,31.97
2023-02-05T18:51:04.670Z,37.60
2023-02-05T18:53:32.032Z,68.73
2023-02-05T18:56:02.389Z,47.53
2023-02-05T18:58:28.861Z,31.47
2023-02-05T19:00:55.304Z,30.50
2023-02-05T19:03:21.662Z,33.13
2023-02-05T19:05:48.155Z,27.33
2023-02-05T19:08:14.588Z,28.13
2023-02-05T19:10:41.059Z,29.83
2023-02-05T19:13:09.208Z,31.33
2023-02-05T19:15:35.776Z,27.27
2023-02-05T19:18:02.220Z,30.80
2023-02-05T19:20:28.591Z,34.73
2023-02-05T19:22:54.940Z,32.60
2023-02-05T19:25:21.323Z,33.17
2023-02-05T19:27:47.868Z,31.17
2023-02-05T19:30:15.042Z,25.73
2023-02-05T19:32:41.435Z,27.00
2023-02-05T19:35:08.147Z,30.37
2023-02-05T19:37:34.496Z,29.10
2023-02-05T19:40:00.855Z,28.00
2023-02-05T19:42:35.419Z,26.97
2023-02-05T19:45:02.061Z,32.93
2023-02-05T19:47:28.572Z,27.60
2023-02-05T19:49:55.005Z,32.00
2023-02-05T19:52:21.455Z,26.60
2023-02-05T19:54:47.869Z,31.87
2023-02-05T19:57:14.273Z,30.87
2023-02-05T19:59:40.645Z,29.37
2023-02-05T20:02:06.982Z,29.13
2023-02-05T20:04:33.433Z,31.60
2023-02-05T20:07:00.248Z,37.60
2023-02-05T20:09:27.332Z,31.13
2023-02-05T20:11:54.489Z,34.97
2023-02-05T20:14:21.220Z,34.37
2023-02-05T20:16:47.651Z,32.43
2023-02-05T20:19:14.958Z,36.10
2023-02-05T20:21:41.747Z,32.80
2023-02-05T20:24:09.438Z,35.23
2023-02-05T20:26:36.463Z,37.47
2023-02-05T20:29:22.264Z,35.53
2023-02-05T20:31:50.143Z,32.63
2023-02-05T20:34:18.528Z,35.30
2023-02-05T20:36:55.346Z,32.03
2023-02-05T20:39:22.927Z,38.87
2023-02-05T20:41:51.204Z,36.47
2023-02-05T20:44:18.057Z,34.97
2023-02-05T20:46:44.734Z,39.13
2023-02-05T20:49:11.582Z,37.13
2023-02-05T20:51:38.028Z,35.50
2023-02-05T20:54:04.761Z,34.80
2023-02-05T20:56:31.982Z,34.57
2023-02-05T20:58:59.735Z,33.87
2023-02-05T21:01:26.931Z,37.67
2023-02-05T21:03:54.412Z,37.50
2023-02-05T21:06:22.033Z,28.53
2023-02-05T21:08:49.691Z,32.33
2023-02-05T21:11:16.738Z,32.67
2023-02-05T21:13:43.685Z,37.00
2023-02-05T21:16:10.508Z,32.40
2023-02-05T21:18:38.235Z,36.27
2023-02-05T21:21:05.734Z,39.87
2023-02-05T21:23:32.180Z,36.97
2023-02-05T21:25:58.551Z,31.07
2023-02-05T21:28:24.948Z,37.10
2023-02-05T21:30:51.444Z,33.80
2023-02-05T21:33:18.376Z,38.40
2023-02-05T21:35:44.719Z,37.60
2023-02-05T21:38:11.061Z,36.17
2023-02-05T21:40:38.368Z,37.13
2023-02-05T21:43:04.886Z,36.60
2023-02-05T21:45:31.269Z,35.93
2023-02-05T21:47:57.660Z,31.53
2023-02-05T21:50:24.158Z,28.03
2023-02-05T21:52:50.527Z,31.93
2023-02-05T21:55:16.940Z,33.50
2023-02-05T21:57:43.344Z,34.57
2023-02-05T22:00:10.135Z,34.53
2023-02-05T22:02:36.809Z,39.53
2023-02-05T22:05:04.414Z,34.73
2023-02-05T22:07:30.815Z,36.60
2023-02-05T22:09:57.374Z,35.87
2023-02-05T22:12:23.820Z,36.37
2023-02-05T22:14:50.203Z,37.13
2023-02-05T22:17:16.791Z,33.57
2023-02-05T22:19:43.412Z,34.47
2023-02-05T22:22:09.852Z,37.90
2023-02-05T22:24:36.504Z,43.23
2023-02-05T22:27:03.133Z,42.47
2023-02-05T22:29:29.603Z,35.83
2023-02-05T22:31:56.032Z,36.37
2023-02-05T22:34:22.454Z,35.80
2023-02-05T22:36:48.786Z,34.20
2023-02-05T22:39:18.223Z,38.03
2023-02-05T22:41:44.652Z,37.40
2023-02-05T22:44:12.179Z,36.90
2023-02-05T22:46:39.993Z,40.10
2023-02-05T22:49:06.475Z,39.80
2023-02-05T22:51:34.503Z,37.63
2023-02-05T22:54:01.303Z,34.47
2023-02-05T22:56:28.146Z,36.97
2023-02-05T22:58:54.932Z,34.03
2023-02-05T23:01:22.692Z,36.27
2023-02-05T23:03:50.803Z,35.70
2023-02-05T23:06:20.319Z,35.60
2023-02-05T23:08:51.447Z,34.50
2023-02-05T23:11:18.135Z,32.47
2023-02-05T23:13:44.528Z,35.23
2023-02-05T23:16:15.660Z,33.50
2023-02-05T23:18:42.658Z,33.57
2023-02-05T23:21:09.943Z,36.13
2023-02-05T23:23:37.433Z,31.70
2023-02-05T23:26:07.778Z,33.70
2023-02-05T23:28:34.288Z,36.93
2023-02-05T23:31:00.837Z,33.27
2023-02-05T23:33:27.405Z,31.37
2023-02-05T23:35:53.927Z,34.57
2023-02-05T23:38:20.505Z,30.70
2023-02-05T23:40:47.484Z,30.73
2023-02-05T23:43:14.011Z,31.37
2023-02-05T23:45:40.800Z,31.93
2023-02-05T23:48:07.235Z,36.20
2023-02-05T23:50:33.571Z,33.97
2023-02-05T23:53:03.077Z,27.20
2023-02-05T23:55:30.305Z,34.93
2023-02-05T23:57:56.880Z,31.67
